createdAt,value
2022-10-07T15:31:54.060Z,63.47
2022-10-07T15:34:21.381Z,60.12
2022-10-07T15:36:49.070Z,59.03
2022-10-07T15:39:16.322Z,58.44
2022-10-07T15:41:43.781Z,58.02
2022-10-07T15:44:18.573Z,57.68
2022-10-07T15:46:49.043Z,57.35
2022-10-07T15:49:18.645Z,57.01
2022-10-07T15:51:48.764Z,56.82
2022-10-07T16:00:21.341Z,56.99
2022-10-07T16:02:49.344Z,53.36
2022-10-07T16:05:18.260Z,52.86
2022-10-07T16:07:47.965Z,52.97
2022-10-07T16:10:14.925Z,53.06
2022-10-07T16:12:42.802Z,53.04
2022-10-07T16:15:11.725Z,52.85
2022-10-07T16:17:39.182Z,52.72
2022-10-07T16:20:11.002Z,52.90
2022-10-07T16:22:38.696Z,53.06
2022-10-07T16:25:06.105Z,52.97
2022-10-07T16:27:56.128Z,53.00
2022-10-07T16:30:41.219Z,53.06
2022-10-07T16:33:08.936Z,53.14
2022-10-07T16:35:37.074Z,53.14
2022-10-07T16:38:05.126Z,53.25
2022-10-07T16:40:32.726Z,53.00
2022-10-07T16:42:59.818Z,53.05
2022-10-07T16:45:29.449Z,53.04
2022-10-07T16:47:57.098Z,53.02
2022-10-07T16:50:24.126Z,52.86
2022-10-07T16:52:51.434Z,52.83
2022-10-07T16:55:18.380Z,52.82
2022-10-07T16:57:48.109Z,52.54
2022-10-07T17:00:15.768Z,52.66
2022-10-07T17:02:42.726Z,52.85
2022-10-07T17:05:11.240Z,52.86
2022-10-07T17:07:38.562Z,52.81
2022-10-07T17:10:07.303Z,53.01
2022-10-07T17:12:38.154Z,52.80
2022-10-07T17:15:05.274Z,52.83
2022-10-07T17:17:33.854Z,52.77
2022-10-07T17:20:00.942Z,52.88
2022-10-07T17:22:27.908Z,52.99
2022-10-07T17:24:55.006Z,53.04
2022-10-07T17:27:22.648Z,52.96
2022-10-07T17:29:49.574Z,53.00
2022-10-07T17:32:16.768Z,52.87
2022-10-07T17:34:45.626Z,52.94
2022-10-07T17:37:13.029Z,52.78
2022-10-07T17:39:39.996Z,52.76
2022-10-07T17:42:07.553Z,52.78
2022-10-07T17:44:34.608Z,52.75
2022-10-07T17:47:03.942Z,52.74
2022-10-07T17:49:32.735Z,52.88
2022-10-07T17:52:00.042Z,53.00
2022-10-07T17:54:27.746Z,53.17
2022-10-07T17:56:55.254Z,53.06
2022-10-07T17:59:24.130Z,53.17
2022-10-07T18:01:51.308Z,53.15
2022-10-07T18:04:24.598Z,53.17
2022-10-07T18:06:52.763Z,53.17
2022-10-07T18:09:22.371Z,53.09
2022-10-07T18:12:09.450Z,53.00
2022-10-07T18:14:54.904Z,53.08
2022-10-07T18:17:24.897Z,52.96
2022-10-07T18:19:52.222Z,53.07
2022-10-07T18:22:19.680Z,53.16
2022-10-07T18:24:46.982Z,53.26
2022-10-07T18:27:13.989Z,53.15
2022-10-07T18:29:42.044Z,53.09
2022-10-07T18:32:09.076Z,53.21
2022-10-07T18:34:36.177Z,53.13
2022-10-07T18:37:03.968Z,53.22
2022-10-07T18:39:31.345Z,53.29
2022-10-07T18:41:59.987Z,53.37
2022-10-07T18:44:27.446Z,53.35
2022-10-07T18:46:55.289Z,53.20
2022-10-07T18:49:25.070Z,53.12
2022-10-07T18:51:52.329Z,53.05
2022-10-07T18:54:19.679Z,53.13
2022-10-07T18:56:47.815Z,53.25
2022-10-07T18:59:15.007Z,53.34
2022-10-07T19:01:43.558Z,53.27
2022-10-07T19:04:13.584Z,53.28
2022-10-07T19:06:46.068Z,53.58
2022-10-07T19:09:19.496Z,53.84
2022-10-07T19:11:47.693Z,53.92
2022-10-07T19:14:15.543Z,53.59
2022-10-07T19:16:49.441Z,53.67
2022-10-07T19:19:22.120Z,53.64
2022-10-07T19:21:51.838Z,53.70
2022-10-07T19:24:19.586Z,53.67
2022-10-07T19:26:49.031Z,53.69
2022-10-07T19:29:19.531Z,53.46
2022-10-07T19:31:48.839Z,53.51
2022-10-07T19:34:21.948Z,53.57
2022-10-07T19:36:50.157Z,53.57
2022-10-07T19:39:19.181Z,53.59
2022-10-07T19:41:46.514Z,53.63
2022-10-07T19:44:14.139Z,53.75
2022-10-07T19:46:41.564Z,53.67
2022-10-07T19:49:10.368Z,53.76
2022-10-07T19:51:37.808Z,53.75
2022-10-07T19:54:10.048Z,53.81
2022-10-07T19:56:40.218Z,53.87
2022-10-07T19:59:11.768Z,53.72
2022-10-07T20:01:43.557Z,53.77
2022-10-07T20:04:15.669Z,53.62
2022-10-07T20:06:43.158Z,53.62
2022-10-07T20:09:12.830Z,53.53
2022-10-07T20:11:53.338Z,53.52
2022-10-07T20:14:20.351Z,53.57
2022-10-07T20:16:47.289Z,53.47
2022-10-07T20:19:16.520Z,53.46
2022-10-07T20:21:44.894Z,53.44
2022-10-07T20:24:14.619Z,53.36
2022-10-07T20:26:42.682Z,53.53
2022-10-07T20:29:14.012Z,53.48
2022-10-07T20:31:41.358Z,53.35
2022-10-07T20:34:13.301Z,53.30
2022-10-07T20:36:41.591Z,53.24
2022-10-07T20:39:33.370Z,53.25
2022-10-07T20:42:18.771Z,53.22
2022-10-07T20:44:47.593Z,53.29
2022-10-07T20:47:14.617Z,53.23
2022-10-07T20:49:42.425Z,53.16
2022-10-07T20:52:11.617Z,53.08
2022-10-07T20:54:38.563Z,53.09
2022-10-07T20:57:07.501Z,53.29
2022-10-07T20:59:36.860Z,53.32
2022-10-07T21:02:09.479Z,53.17
2022-10-07T21:04:36.995Z,53.29
2022-10-07T21:07:04.703Z,53.10
2022-10-07T21:09:36.464Z,53.22
2022-10-07T21:12:07.598Z,53.33
2022-10-07T21:14:36.855Z,53.39
2022-10-07T21:17:05.357Z,53.29
2022-10-07T21:19:32.882Z,53.19
2022-10-07T21:21:59.890Z,53.14
2022-10-07T21:24:26.764Z,53.19
2022-10-07T21:26:53.697Z,53.20
2022-10-07T21:29:20.538Z,53.39
2022-10-07T21:31:47.487Z,53.23
2022-10-07T21:34:14.494Z,53.21
2022-10-07T21:36:50.307Z,53.26
2022-10-07T21:39:20.188Z,53.33
2022-10-07T21:41:48.179Z,53.41
2022-10-07T21:44:15.201Z,53.68
2022-10-07T21:46:48.062Z,53.55
2022-10-07T21:49:15.187Z,53.60
2022-10-07T21:51:42.656Z,53.67
2022-10-07T21:54:14.396Z,53.76
2022-10-07T21:56:43.769Z,53.60
2022-10-07T21:59:10.827Z,53.81
2022-10-07T22:01:42.582Z,53.89
2022-10-07T22:04:16.785Z,53.86
2022-10-07T22:07:02.529Z,53.87
2022-10-07T22:09:31.239Z,53.89
2022-10-07T22:11:58.132Z,53.83
2022-10-07T22:14:25.243Z,53.85
2022-10-07T22:16:55.490Z,53.91
2022-10-07T22:19:23.215Z,53.87
2022-10-07T22:21:50.137Z,53.90
2022-10-07T22:24:17.168Z,53.86
2022-10-07T22:26:47.374Z,53.98
2022-10-07T22:29:16.331Z,53.86
2022-10-07T22:31:43.848Z,53.95
2022-10-07T22:34:30.754Z,53.78
2022-10-07T22:37:00.537Z,53.95
2022-10-07T22:39:28.824Z,53.89
2022-10-07T22:41:56.491Z,53.97
2022-10-07T22:44:23.587Z,54.09
2022-10-07T22:46:50.449Z,54.14
2022-10-07T22:49:18.179Z,54.32
2022-10-07T22:51:45.374Z,54.35
2022-10-07T22:54:12.911Z,54.22
2022-10-07T22:56:40.295Z,54.20
2022-10-07T22:59:08.810Z,54.19
2022-10-07T23:01:36.706Z,54.09
2022-10-07T23:04:04.953Z,54.12
2022-10-07T23:06:35.238Z,54.14
2022-10-07T23:09:02.554Z,54.10
2022-10-07T23:11:29.942Z,54.08
2022-10-07T23:13:57.471Z,54.02
2022-10-07T23:16:26.382Z,54.12
2022-10-07T23:18:54.335Z,54.23
2022-10-07T23:21:26.094Z,54.10
2022-10-07T23:24:05.941Z,53.98
2022-10-07T23:26:34.625Z,54.09
2022-10-07T23:29:01.960Z,54.01
2022-10-07T23:31:30.514Z,54.01
2022-10-07T23:33:58.172Z,54.02
2022-10-07T23:36:25.532Z,54.06
2022-10-07T23:38:52.518Z,53.89
2022-10-07T23:41:24.719Z,53.88
2022-10-07T23:43:52.152Z,53.93
2022-10-07T23:46:19.938Z,53.96
2022-10-07T23:48:47.153Z,54.24
2022-10-07T23:51:16.060Z,54.18
2022-10-07T23:53:43.575Z,54.24
2022-10-07T23:56:13.102Z,54.40
2022-10-07T23:58:40.551Z,54.31
